sensor_id;sensor_type;location;lat;lon;timestamp;P1;durP1;ratioP1;P2;durP2;ratioP2
74632;SDS011;63139;52.018;8.552;2022-12-08T00:01:19;19.17;;;11.48;;
74632;SDS011;63139;52.018;8.552;2022-12-08T00:03:48;19.70;;;11.82;;
74632;SDS011;63139;52.018;8.552;2022-12-08T00:06:24;21.95;;;11.38;;
74632;SDS011;63139;52.018;8.552;2022-12-08T00:09:11;18.58;;;10.93;;
74632;SDS011;63139;52.018;8.552;2022-12-08T00:11:51;19.13;;;10.52;;
74632;SDS011;63139;52.018;8.552;2022-12-08T00:14:25;18.92;;;11.23;;
74632;SDS011;63139;52.018;8.552;2022-12-08T00:16:56;23.08;;;11.65;;
74632;SDS011;63139;52.018;8.552;2022-12-08T00:19:25;17.33;;;10.50;;
74632;SDS011;63139;52.018;8.552;2022-12-08T00:21:54;19.05;;;9.65;;
74632;SDS011;63139;52.018;8.552;2022-12-08T00:24:23;18.33;;;9.55;;
74632;SDS011;63139;52.018;8.552;2022-12-08T00:26:52;19.48;;;10.52;;
74632;SDS011;63139;52.018;8.552;2022-12-08T00:29:20;19.25;;;9.65;;
74632;SDS011;63139;52.018;8.552;2022-12-08T00:31:48;22.85;;;12.20;;
74632;SDS011;63139;52.018;8.552;2022-12-08T00:34:18;27.00;;;12.30;;
74632;SDS011;63139;52.018;8.552;2022-12-08T00:36:46;15.95;;;9.55;;
74632;SDS011;63139;52.018;8.552;2022-12-08T00:39:14;18.38;;;11.27;;
74632;SDS011;63139;52.018;8.552;2022-12-08T00:41:43;22.17;;;11.27;;
74632;SDS011;63139;52.018;8.552;2022-12-08T00:44:28;18.38;;;11.02;;
74632;SDS011;63139;52.018;8.552;2022-12-08T00:46:56;18.50;;;9.52;;
74632;SDS011;63139;52.018;8.552;2022-12-08T00:49:25;23.73;;;12.38;;
74632;SDS011;63139;52.018;8.552;2022-12-08T00:51:53;21.10;;;12.50;;
74632;SDS011;63139;52.018;8.552;2022-12-08T00:54:21;24.35;;;13.20;;
74632;SDS011;63139;52.018;8.552;2022-12-08T00:56:49;20.90;;;12.27;;
74632;SDS011;63139;52.018;8.552;2022-12-08T00:59:17;21.65;;;11.55;;
74632;SDS011;63139;52.018;8.552;2022-12-08T01:01:46;23.23;;;11.70;;
74632;SDS011;63139;52.018;8.552;2022-12-08T01:04:14;23.85;;;13.27;;
74632;SDS011;63139;52.018;8.552;2022-12-08T01:06:45;26.67;;;12.88;;
74632;SDS011;63139;52.018;8.552;2022-12-08T01:09:13;19.83;;;11.32;;
74632;SDS011;63139;52.018;8.552;2022-12-08T01:11:42;28.50;;;14.85;;
74632;SDS011;63139;52.018;8.552;2022-12-08T01:14:10;24.15;;;12.23;;
74632;SDS011;63139;52.018;8.552;2022-12-08T01:16:39;22.73;;;12.52;;
74632;SDS011;63139;52.018;8.552;2022-12-08T01:19:08;25.52;;;13.40;;
74632;SDS011;63139;52.018;8.552;2022-12-08T01:21:37;21.02;;;12.15;;
74632;SDS011;63139;52.018;8.552;2022-12-08T01:24:15;20.02;;;11.90;;
74632;SDS011;63139;52.018;8.552;2022-12-08T01:26:44;22.58;;;13.65;;
74632;SDS011;63139;52.018;8.552;2022-12-08T01:29:12;27.00;;;14.10;;
74632;SDS011;63139;52.018;8.552;2022-12-08T01:31:40;24.65;;;13.57;;
74632;SDS011;63139;52.018;8.552;2022-12-08T01:34:08;22.13;;;12.60;;
74632;SDS011;63139;52.018;8.552;2022-12-08T01:36:36;21.83;;;12.02;;
74632;SDS011;63139;52.018;8.552;2022-12-08T01:39:05;24.63;;;13.80;;
74632;SDS011;63139;52.018;8.552;2022-12-08T01:41:38;22.05;;;12.65;;
74632;SDS011;63139;52.018;8.552;2022-12-08T01:47:10;26.95;;;13.85;;
74632;SDS011;63139;52.018;8.552;2022-12-08T01:49:38;24.15;;;11.75;;
74632;SDS011;63139;52.018;8.552;2022-12-08T01:52:08;21.85;;;12.18;;
74632;SDS011;63139;52.018;8.552;2022-12-08T01:54:41;20.25;;;11.60;;
74632;SDS011;63139;52.018;8.552;2022-12-08T01:57:15;21.73;;;13.35;;
74632;SDS011;63139;52.018;8.552;2022-12-08T01:59:48;19.67;;;11.63;;
74632;SDS011;63139;52.018;8.552;2022-12-08T02:02:20;22.67;;;13.38;;
74632;SDS011;63139;52.018;8.552;2022-12-08T02:04:50;25.75;;;13.95;;
74632;SDS011;63139;52.018;8.552;2022-12-08T02:07:18;24.15;;;13.30;;
74632;SDS011;63139;52.018;8.552;2022-12-08T02:09:46;19.60;;;11.98;;
74632;SDS011;63139;52.018;8.552;2022-12-08T02:12:16;21.80;;;12.88;;
74632;SDS011;63139;52.018;8.552;2022-12-08T02:14:44;17.27;;;10.98;;
74632;SDS011;63139;52.018;8.552;2022-12-08T02:17:15;18.08;;;11.55;;
74632;SDS011;63139;52.018;8.552;2022-12-08T02:20:15;20.58;;;11.95;;
74632;SDS011;63139;52.018;8.552;2022-12-08T02:23:00;27.90;;;13.88;;
74632;SDS011;63139;52.018;8.552;2022-12-08T02:25:38;29.52;;;14.32;;
74632;SDS011;63139;52.018;8.552;2022-12-08T02:28:26;21.63;;;12.13;;
74632;SDS011;63139;52.018;8.552;2022-12-08T02:31:10;23.58;;;13.30;;
74632;SDS011;63139;52.018;8.552;2022-12-08T02:36:46;24.95;;;14.00;;
74632;SDS011;63139;52.018;8.552;2022-12-08T02:39:27;24.15;;;14.00;;
74632;SDS011;63139;52.018;8.552;2022-12-08T02:42:05;22.85;;;13.07;;
74632;SDS011;63139;52.018;8.552;2022-12-08T02:44:40;18.38;;;11.30;;
74632;SDS011;63139;52.018;8.552;2022-12-08T02:47:14;22.40;;;13.48;;
74632;SDS011;63139;52.018;8.552;2022-12-08T02:49:45;17.42;;;11.23;;
74632;SDS011;63139;52.018;8.552;2022-12-08T02:55:10;14.85;;;10.00;;
74632;SDS011;63139;52.018;8.552;2022-12-08T02:57:49;18.37;;;11.93;;
74632;SDS011;63139;52.018;8.552;2022-12-08T03:00:41;18.63;;;11.68;;
74632;SDS011;63139;52.018;8.552;2022-12-08T03:03:23;16.13;;;11.32;;
74632;SDS011;63139;52.018;8.552;2022-12-08T03:06:02;16.02;;;10.52;;
74632;SDS011;63139;52.018;8.552;2022-12-08T03:08:38;21.02;;;12.27;;
74632;SDS011;63139;52.018;8.552;2022-12-08T03:11:16;19.42;;;11.43;;
74632;SDS011;63139;52.018;8.552;2022-12-08T03:13:49;15.85;;;11.93;;
74632;SDS011;63139;52.018;8.552;2022-12-08T03:16:19;18.33;;;12.30;;
74632;SDS011;63139;52.018;8.552;2022-12-08T03:18:51;23.15;;;13.95;;
74632;SDS011;63139;52.018;8.552;2022-12-08T03:21:24;18.90;;;11.95;;
74632;SDS011;63139;52.018;8.552;2022-12-08T03:23:53;18.75;;;12.50;;
74632;SDS011;63139;52.018;8.552;2022-12-08T03:26:24;22.52;;;12.63;;
74632;SDS011;63139;52.018;8.552;2022-12-08T03:28:56;19.77;;;11.63;;
74632;SDS011;63139;52.018;8.552;2022-12-08T03:31:25;22.90;;;13.30;;
74632;SDS011;63139;52.018;8.552;2022-12-08T03:33:57;24.30;;;14.23;;
74632;SDS011;63139;52.018;8.552;2022-12-08T03:36:28;21.90;;;13.05;;
74632;SDS011;63139;52.018;8.552;2022-12-08T03:38:56;25.33;;;16.13;;
74632;SDS011;63139;52.018;8.552;2022-12-08T03:41:24;26.63;;;15.88;;
74632;SDS011;63139;52.018;8.552;2022-12-08T03:43:53;23.80;;;15.23;;
74632;SDS011;63139;52.018;8.552;2022-12-08T03:46:23;23.55;;;14.32;;
74632;SDS011;63139;52.018;8.552;2022-12-08T03:48:51;24.40;;;13.73;;
74632;SDS011;63139;52.018;8.552;2022-12-08T03:51:19;23.17;;;15.18;;
74632;SDS011;63139;52.018;8.552;2022-12-08T03:53:49;26.10;;;14.68;;
74632;SDS011;63139;52.018;8.552;2022-12-08T03:56:19;27.83;;;16.52;;
74632;SDS011;63139;52.018;8.552;2022-12-08T03:58:49;23.50;;;15.48;;
74632;SDS011;63139;52.018;8.552;2022-12-08T04:01:18;23.88;;;14.05;;
74632;SDS011;63139;52.018;8.552;2022-12-08T04:03:46;24.33;;;14.82;;
74632;SDS011;63139;52.018;8.552;2022-12-08T04:06:14;29.52;;;15.07;;
74632;SDS011;63139;52.018;8.552;2022-12-08T04:08:43;24.23;;;15.00;;
74632;SDS011;63139;52.018;8.552;2022-12-08T04:11:12;24.52;;;14.82;;
74632;SDS011;63139;52.018;8.552;2022-12-08T04:13:40;25.48;;;14.93;;
74632;SDS011;63139;52.018;8.552;2022-12-08T04:16:12;25.92;;;14.73;;
74632;SDS011;63139;52.018;8.552;2022-12-08T04:18:42;29.73;;;15.43;;
74632;SDS011;63139;52.018;8.552;2022-12-08T04:21:10;23.60;;;15.45;;
74632;SDS011;63139;52.018;8.552;2022-12-08T04:23:38;28.60;;;17.15;;
74632;SDS011;63139;52.018;8.552;2022-12-08T04:26:06;26.42;;;15.18;;
74632;SDS011;63139;52.018;8.552;2022-12-08T04:28:35;26.92;;;14.98;;
74632;SDS011;63139;52.018;8.552;2022-12-08T04:31:03;21.20;;;13.88;;
74632;SDS011;63139;52.018;8.552;2022-12-08T04:33:32;24.05;;;14.48;;
74632;SDS011;63139;52.018;8.552;2022-12-08T04:36:00;29.73;;;16.25;;
74632;SDS011;63139;52.018;8.552;2022-12-08T04:38:28;25.98;;;15.70;;
74632;SDS011;63139;52.018;8.552;2022-12-08T04:40:56;33.03;;;17.80;;
74632;SDS011;63139;52.018;8.552;2022-12-08T04:43:24;31.45;;;17.80;;
74632;SDS011;63139;52.018;8.552;2022-12-08T04:45:53;24.67;;;15.07;;
74632;SDS011;63139;52.018;8.552;2022-12-08T04:48:21;24.30;;;13.65;;
74632;SDS011;63139;52.018;8.552;2022-12-08T04:50:49;25.92;;;16.92;;
74632;SDS011;63139;52.018;8.552;2022-12-08T04:53:18;25.35;;;15.48;;
74632;SDS011;63139;52.018;8.552;2022-12-08T04:55:46;27.52;;;17.08;;
74632;SDS011;63139;52.018;8.552;2022-12-08T04:58:16;24.85;;;16.38;;
74632;SDS011;63139;52.018;8.552;2022-12-08T05:00:45;25.23;;;16.73;;
74632;SDS011;63139;52.018;8.552;2022-12-08T05:03:15;29.15;;;18.40;;
74632;SDS011;63139;52.018;8.552;2022-12-08T05:05:52;26.27;;;16.15;;
74632;SDS011;63139;52.018;8.552;2022-12-08T05:08:19;28.23;;;17.15;;
74632;SDS011;63139;52.018;8.552;2022-12-08T05:10:47;25.63;;;15.38;;
74632;SDS011;63139;52.018;8.552;2022-12-08T05:13:15;25.05;;;15.85;;
74632;SDS011;63139;52.018;8.552;2022-12-08T05:15:43;23.88;;;14.38;;
74632;SDS011;63139;52.018;8.552;2022-12-08T05:18:11;27.60;;;17.05;;
74632;SDS011;63139;52.018;8.552;2022-12-08T05:20:40;21.75;;;14.02;;
74632;SDS011;63139;52.018;8.552;2022-12-08T05:23:08;22.33;;;13.75;;
74632;SDS011;63139;52.018;8.552;2022-12-08T05:25:35;25.05;;;15.98;;
74632;SDS011;63139;52.018;8.552;2022-12-08T05:28:03;21.63;;;13.27;;
74632;SDS011;63139;52.018;8.552;2022-12-08T05:30:51;19.50;;;12.40;;
74632;SDS011;63139;52.018;8.552;2022-12-08T05:33:19;23.30;;;14.13;;
74632;SDS011;63139;52.018;8.552;2022-12-08T05:35:48;17.35;;;11.60;;
74632;SDS011;63139;52.018;8.552;2022-12-08T05:38:16;21.02;;;14.65;;
74632;SDS011;63139;52.018;8.552;2022-12-08T05:40:44;18.95;;;12.45;;
74632;SDS011;63139;52.018;8.552;2022-12-08T05:43:12;19.55;;;12.30;;
74632;SDS011;63139;52.018;8.552;2022-12-08T05:45:40;17.75;;;11.55;;
74632;SDS011;63139;52.018;8.552;2022-12-08T05:48:08;20.67;;;11.60;;
74632;SDS011;63139;52.018;8.552;2022-12-08T05:50:36;17.40;;;11.23;;
74632;SDS011;63139;52.018;8.552;2022-12-08T05:53:05;17.83;;;10.48;;
74632;SDS011;63139;52.018;8.552;2022-12-08T05:55:33;14.75;;;10.00;;
74632;SDS011;63139;52.018;8.552;2022-12-08T05:58:00;17.30;;;10.30;;
74632;SDS011;63139;52.018;8.552;2022-12-08T06:00:33;15.38;;;10.80;;
74632;SDS011;63139;52.018;8.552;2022-12-08T06:03:01;14.07;;;9.23;;
74632;SDS011;63139;52.018;8.552;2022-12-08T06:05:30;16.05;;;10.80;;
74632;SDS011;63139;52.018;8.552;2022-12-08T06:07:59;14.70;;;10.15;;
74632;SDS011;63139;52.018;8.552;2022-12-08T06:10:28;15.25;;;10.82;;
74632;SDS011;63139;52.018;8.552;2022-12-08T06:12:56;17.65;;;11.48;;
74632;SDS011;63139;52.018;8.552;2022-12-08T06:15:24;16.17;;;9.93;;
74632;SDS011;63139;52.018;8.552;2022-12-08T06:17:52;16.67;;;11.30;;
74632;SDS011;63139;52.018;8.552;2022-12-08T06:20:19;20.17;;;12.13;;
74632;SDS011;63139;52.018;8.552;2022-12-08T06:22:47;15.75;;;10.85;;
74632;SDS011;63139;52.018;8.552;2022-12-08T06:25:15;17.08;;;10.68;;
74632;SDS011;63139;52.018;8.552;2022-12-08T06:27:44;21.45;;;13.95;;
74632;SDS011;63139;52.018;8.552;2022-12-08T06:30:13;26.55;;;16.08;;
74632;SDS011;63139;52.018;8.552;2022-12-08T06:32:41;27.17;;;15.98;;
74632;SDS011;63139;52.018;8.552;2022-12-08T06:35:09;28.95;;;16.98;;
74632;SDS011;63139;52.018;8.552;2022-12-08T06:37:37;23.58;;;15.07;;
74632;SDS011;63139;52.018;8.552;2022-12-08T06:40:05;27.33;;;16.92;;
74632;SDS011;63139;52.018;8.552;2022-12-08T06:42:34;27.67;;;16.35;;
74632;SDS011;63139;52.018;8.552;2022-12-08T06:45:14;26.52;;;14.82;;
74632;SDS011;63139;52.018;8.552;2022-12-08T06:47:43;26.83;;;16.77;;
74632;SDS011;63139;52.018;8.552;2022-12-08T06:50:12;24.90;;;14.93;;
74632;SDS011;63139;52.018;8.552;2022-12-08T06:52:40;26.45;;;15.98;;
74632;SDS011;63139;52.018;8.552;2022-12-08T06:55:23;23.17;;;14.52;;
74632;SDS011;63139;52.018;8.552;2022-12-08T06:58:11;27.20;;;14.88;;
74632;SDS011;63139;52.018;8.552;2022-12-08T07:00:42;21.85;;;12.77;;
74632;SDS011;63139;52.018;8.552;2022-12-08T07:03:11;25.05;;;14.85;;
74632;SDS011;63139;52.018;8.552;2022-12-08T07:05:39;21.27;;;13.60;;
74632;SDS011;63139;52.018;8.552;2022-12-08T07:08:07;23.85;;;13.65;;
74632;SDS011;63139;52.018;8.552;2022-12-08T07:10:35;21.10;;;13.40;;
74632;SDS011;63139;52.018;8.552;2022-12-08T07:13:04;24.45;;;14.98;;
74632;SDS011;63139;52.018;8.552;2022-12-08T07:15:31;21.75;;;13.27;;
74632;SDS011;63139;52.018;8.552;2022-12-08T07:18:01;24.10;;;14.18;;
74632;SDS011;63139;52.018;8.552;2022-12-08T07:20:28;25.08;;;14.95;;
74632;SDS011;63139;52.018;8.552;2022-12-08T07:22:56;28.38;;;16.77;;
74632;SDS011;63139;52.018;8.552;2022-12-08T07:25:24;25.52;;;14.57;;
74632;SDS011;63139;52.018;8.552;2022-12-08T07:27:52;23.17;;;14.13;;
74632;SDS011;63139;52.018;8.552;2022-12-08T07:30:20;19.15;;;12.27;;
74632;SDS011;63139;52.018;8.552;2022-12-08T07:32:48;23.90;;;14.02;;
74632;SDS011;63139;52.018;8.552;2022-12-08T07:35:17;24.65;;;13.95;;
74632;SDS011;63139;52.018;8.552;2022-12-08T07:37:45;22.63;;;13.20;;
74632;SDS011;63139;52.018;8.552;2022-12-08T07:40:13;24.42;;;14.30;;
74632;SDS011;63139;52.018;8.552;2022-12-08T07:42:41;21.52;;;13.20;;
74632;SDS011;63139;52.018;8.552;2022-12-08T07:45:09;23.45;;;13.45;;
74632;SDS011;63139;52.018;8.552;2022-12-08T07:47:36;20.27;;;12.43;;
74632;SDS011;63139;52.018;8.552;2022-12-08T07:50:05;22.25;;;13.30;;
74632;SDS011;63139;52.018;8.552;2022-12-08T07:52:35;21.73;;;12.35;;
74632;SDS011;63139;52.018;8.552;2022-12-08T07:55:03;20.17;;;12.07;;
74632;SDS011;63139;52.018;8.552;2022-12-08T07:57:31;22.25;;;12.52;;
74632;SDS011;63139;52.018;8.552;2022-12-08T07:59:59;21.60;;;13.07;;
74632;SDS011;63139;52.018;8.552;2022-12-08T08:02:36;20.77;;;12.35;;
74632;SDS011;63139;52.018;8.552;2022-12-08T08:05:05;22.10;;;12.77;;
74632;SDS011;63139;52.018;8.552;2022-12-08T08:07:33;19.35;;;11.55;;
74632;SDS011;63139;52.018;8.552;2022-12-08T08:10:04;19.83;;;11.63;;
74632;SDS011;63139;52.018;8.552;2022-12-08T08:12:33;19.38;;;11.30;;
74632;SDS011;63139;52.018;8.552;2022-12-08T08:15:02;18.52;;;11.32;;
74632;SDS011;63139;52.018;8.552;2022-12-08T08:17:32;16.75;;;10.30;;
74632;SDS011;63139;52.018;8.552;2022-12-08T08:20:01;17.95;;;10.02;;
74632;SDS011;63139;52.018;8.552;2022-12-08T08:22:33;16.70;;;10.27;;
74632;SDS011;63139;52.018;8.552;2022-12-08T08:25:02;17.60;;;10.45;;
74632;SDS011;63139;52.018;8.552;2022-12-08T08:27:31;19.05;;;11.18;;
74632;SDS011;63139;52.018;8.552;2022-12-08T08:29:59;17.67;;;10.68;;
74632;SDS011;63139;52.018;8.552;2022-12-08T08:32:31;18.23;;;10.70;;
74632;SDS011;63139;52.018;8.552;2022-12-08T08:34:59;16.50;;;9.85;;
74632;SDS011;63139;52.018;8.552;2022-12-08T08:37:28;17.05;;;10.25;;
74632;SDS011;63139;52.018;8.552;2022-12-08T08:39:55;16.63;;;10.00;;
74632;SDS011;63139;52.018;8.552;2022-12-08T08:42:25;14.45;;;9.27;;
74632;SDS011;63139;52.018;8.552;2022-12-08T08:44:53;17.60;;;9.50;;
74632;SDS011;63139;52.018;8.552;2022-12-08T08:47:21;17.73;;;9.95;;
74632;SDS011;63139;52.018;8.552;2022-12-08T08:49:49;15.35;;;9.13;;
74632;SDS011;63139;52.018;8.552;2022-12-08T08:52:17;15.00;;;9.80;;
74632;SDS011;63139;52.018;8.552;2022-12-08T08:54:44;15.00;;;9.43;;
74632;SDS011;63139;52.018;8.552;2022-12-08T08:57:12;17.15;;;9.80;;
74632;SDS011;63139;52.018;8.552;2022-12-08T08:59:41;15.07;;;9.35;;
74632;SDS011;63139;52.018;8.552;2022-12-08T09:02:11;16.15;;;9.82;;
74632;SDS011;63139;52.018;8.552;2022-12-08T09:04:43;15.38;;;9.10;;
74632;SDS011;63139;52.018;8.552;2022-12-08T09:07:11;14.25;;;8.93;;
74632;SDS011;63139;52.018;8.552;2022-12-08T09:09:40;12.60;;;8.18;;
74632;SDS011;63139;52.018;8.552;2022-12-08T09:12:08;12.18;;;7.78;;
74632;SDS011;63139;52.018;8.552;2022-12-08T09:14:36;13.82;;;8.68;;
74632;SDS011;63139;52.018;8.552;2022-12-08T09:17:06;13.90;;;8.88;;
74632;SDS011;63139;52.018;8.552;2022-12-08T09:19:35;14.57;;;9.30;;
74632;SDS011;63139;52.018;8.552;2022-12-08T09:22:03;12.98;;;8.73;;
74632;SDS011;63139;52.018;8.552;2022-12-08T09:24:32;12.70;;;8.60;;
74632;SDS011;63139;52.018;8.552;2022-12-08T09:27:00;14.00;;;8.90;;
74632;SDS011;63139;52.018;8.552;2022-12-08T09:29:28;13.25;;;8.45;;
74632;SDS011;63139;52.018;8.552;2022-12-08T09:32:01;13.35;;;9.02;;
74632;SDS011;63139;52.018;8.552;2022-12-08T09:34:30;17.75;;;8.65;;
74632;SDS011;63139;52.018;8.552;2022-12-08T09:36:58;12.00;;;8.50;;
74632;SDS011;63139;52.018;8.552;2022-12-08T09:39:26;13.23;;;8.18;;
74632;SDS011;63139;52.018;8.552;2022-12-08T09:41:56;13.10;;;8.10;;
74632;SDS011;63139;52.018;8.552;2022-12-08T09:44:38;11.38;;;7.82;;
74632;SDS011;63139;52.018;8.552;2022-12-08T09:47:18;13.00;;;8.27;;
74632;SDS011;63139;52.018;8.552;2022-12-08T09:49:53;12.90;;;9.05;;
74632;SDS011;63139;52.018;8.552;2022-12-08T09:52:27;13.15;;;8.30;;
74632;SDS011;63139;52.018;8.552;2022-12-08T09:54:59;12.32;;;8.48;;
74632;SDS011;63139;52.018;8.552;2022-12-08T09:57:30;12.65;;;8.38;;
74632;SDS011;63139;52.018;8.552;2022-12-08T09:59:59;9.85;;;6.85;;
74632;SDS011;63139;52.018;8.552;2022-12-08T10:02:31;11.55;;;7.88;;
74632;SDS011;63139;52.018;8.552;2022-12-08T10:05:00;10.63;;;7.75;;
74632;SDS011;63139;52.018;8.552;2022-12-08T10:07:33;11.35;;;8.30;;
74632;SDS011;63139;52.018;8.552;2022-12-08T10:10:12;11.85;;;7.97;;
74632;SDS011;63139;52.018;8.552;2022-12-08T10:12:50;12.82;;;9.30;;
74632;SDS011;63139;52.018;8.552;2022-12-08T10:15:29;13.18;;;9.15;;
74632;SDS011;63139;52.018;8.552;2022-12-08T10:18:09;12.55;;;8.63;;
74632;SDS011;63139;52.018;8.552;2022-12-08T10:20:44;15.07;;;9.63;;
74632;SDS011;63139;52.018;8.552;2022-12-08T10:23:16;11.32;;;7.40;;
74632;SDS011;63139;52.018;8.552;2022-12-08T10:25:50;12.40;;;8.07;;
74632;SDS011;63139;52.018;8.552;2022-12-08T10:28:21;10.07;;;7.50;;
74632;SDS011;63139;52.018;8.552;2022-12-08T10:30:49;11.55;;;8.07;;
74632;SDS011;63139;52.018;8.552;2022-12-08T10:33:18;10.93;;;8.30;;
74632;SDS011;63139;52.018;8.552;2022-12-08T10:35:50;11.00;;;7.70;;
74632;SDS011;63139;52.018;8.552;2022-12-08T10:38:20;8.30;;;6.38;;
74632;SDS011;63139;52.018;8.552;2022-12-08T10:40:50;10.80;;;8.30;;
74632;SDS011;63139;52.018;8.552;2022-12-08T10:43:21;11.30;;;8.57;;
74632;SDS011;63139;52.018;8.552;2022-12-08T10:45:51;9.68;;;7.53;;
74632;SDS011;63139;52.018;8.552;2022-12-08T10:48:20;10.45;;;7.50;;
74632;SDS011;63139;52.018;8.552;2022-12-08T10:50:54;11.93;;;8.25;;
74632;SDS011;63139;52.018;8.552;2022-12-08T10:53:23;9.52;;;7.25;;
74632;SDS011;63139;52.018;8.552;2022-12-08T10:56:04;11.27;;;6.93;;
74632;SDS011;63139;52.018;8.552;2022-12-08T10:58:34;8.27;;;5.72;;
74632;SDS011;63139;52.018;8.552;2022-12-08T11:01:08;9.88;;;6.63;;
74632;SDS011;63139;52.018;8.552;2022-12-08T11:03:42;9.68;;;6.63;;
74632;SDS011;63139;52.018;8.552;2022-12-08T11:06:15;9.48;;;7.03;;
74632;SDS011;63139;52.018;8.552;2022-12-08T11:08:46;8.23;;;6.65;;
74632;SDS011;63139;52.018;8.552;2022-12-08T11:11:17;9.73;;;7.35;;
74632;SDS011;63139;52.018;8.552;2022-12-08T11:13:54;8.65;;;7.00;;
74632;SDS011;63139;52.018;8.552;2022-12-08T11:16:22;7.35;;;5.78;;
74632;SDS011;63139;52.018;8.552;2022-12-08T11:18:54;7.55;;;5.85;;
74632;SDS011;63139;52.018;8.552;2022-12-08T11:21:31;8.27;;;6.72;;
74632;SDS011;63139;52.018;8.552;2022-12-08T11:24:09;8.45;;;6.93;;
74632;SDS011;63139;52.018;8.552;2022-12-08T11:26:50;7.80;;;5.78;;
74632;SDS011;63139;52.018;8.552;2022-12-08T11:29:19;8.10;;;6.50;;
74632;SDS011;63139;52.018;8.552;2022-12-08T11:31:48;7.22;;;5.80;;
74632;SDS011;63139;52.018;8.552;2022-12-08T11:34:22;6.85;;;5.63;;
74632;SDS011;63139;52.018;8.552;2022-12-08T11:36:58;6.72;;;5.10;;
74632;SDS011;63139;52.018;8.552;2022-12-08T11:39:27;6.88;;;4.63;;
74632;SDS011;63139;52.018;8.552;2022-12-08T11:41:58;6.40;;;5.20;;
74632;SDS011;63139;52.018;8.552;2022-12-08T11:44:31;5.85;;;4.82;;
74632;SDS011;63139;52.018;8.552;2022-12-08T11:47:04;6.03;;;4.25;;
74632;SDS011;63139;52.018;8.552;2022-12-08T11:49:37;6.00;;;4.95;;
74632;SDS011;63139;52.018;8.552;2022-12-08T11:52:10;5.57;;;4.53;;
74632;SDS011;63139;52.018;8.552;2022-12-08T11:54:48;4.60;;;3.65;;
74632;SDS011;63139;52.018;8.552;2022-12-08T11:57:22;5.38;;;4.25;;
74632;SDS011;63139;52.018;8.552;2022-12-08T11:59:53;6.60;;;4.50;;
74632;SDS011;63139;52.018;8.552;2022-12-08T12:02:24;9.15;;;4.75;;
74632;SDS011;63139;52.018;8.552;2022-12-08T12:04:54;5.70;;;4.53;;
74632;SDS011;63139;52.018;8.552;2022-12-08T12:07:34;5.85;;;4.05;;
74632;SDS011;63139;52.018;8.552;2022-12-08T12:13:20;5.57;;;4.00;;
74632;SDS011;63139;52.018;8.552;2022-12-08T12:16:06;9.00;;;5.05;;
74632;SDS011;63139;52.018;8.552;2022-12-08T12:18:59;4.78;;;4.05;;
74632;SDS011;63139;52.018;8.552;2022-12-08T12:21:30;5.18;;;4.28;;
74632;SDS011;63139;52.018;8.552;2022-12-08T12:24:03;5.95;;;4.20;;
74632;SDS011;63139;52.018;8.552;2022-12-08T12:26:36;5.35;;;3.90;;
74632;SDS011;63139;52.018;8.552;2022-12-08T12:29:16;6.13;;;3.95;;
74632;SDS011;63139;52.018;8.552;2022-12-08T12:31:47;3.65;;;3.20;;
74632;SDS011;63139;52.018;8.552;2022-12-08T12:34:19;4.70;;;3.90;;
74632;SDS011;63139;52.018;8.552;2022-12-08T12:36:50;8.15;;;4.22;;
74632;SDS011;63139;52.018;8.552;2022-12-08T12:39:24;4.57;;;3.85;;
74632;SDS011;63139;52.018;8.552;2022-12-08T12:41:56;4.47;;;3.85;;
74632;SDS011;63139;52.018;8.552;2022-12-08T12:44:36;6.05;;;4.38;;
74632;SDS011;63139;52.018;8.552;2022-12-08T12:47:10;5.72;;;4.10;;
74632;SDS011;63139;52.018;8.552;2022-12-08T12:52:37;4.68;;;3.78;;
74632;SDS011;63139;52.018;8.552;2022-12-08T12:55:21;7.78;;;4.57;;
74632;SDS011;63139;52.018;8.552;2022-12-08T12:57:51;6.20;;;4.72;;
74632;SDS011;63139;52.018;8.552;2022-12-08T13:00:21;5.57;;;4.55;;
74632;SDS011;63139;52.018;8.552;2022-12-08T13:02:50;4.40;;;3.88;;
74632;SDS011;63139;52.018;8.552;2022-12-08T13:05:20;5.03;;;4.03;;
74632;SDS011;63139;52.018;8.552;2022-12-08T13:07:52;5.28;;;4.20;;
74632;SDS011;63139;52.018;8.552;2022-12-08T13:10:24;5.03;;;3.78;;
74632;SDS011;63139;52.018;8.552;2022-12-08T13:13:03;5.53;;;4.45;;
74632;SDS011;63139;52.018;8.552;2022-12-08T13:15:34;5.85;;;4.10;;
74632;SDS011;63139;52.018;8.552;2022-12-08T13:18:04;6.13;;;4.10;;
74632;SDS011;63139;52.018;8.552;2022-12-08T13:20:39;7.35;;;5.28;;
74632;SDS011;63139;52.018;8.552;2022-12-08T13:23:23;6.93;;;4.93;;
74632;SDS011;63139;52.018;8.552;2022-12-08T13:26:12;6.07;;;4.63;;
74632;SDS011;63139;52.018;8.552;2022-12-08T13:31:40;7.35;;;4.90;;
74632;SDS011;63139;52.018;8.552;2022-12-08T13:34:18;7.07;;;5.40;;
74632;SDS011;63139;52.018;8.552;2022-12-08T13:36:51;5.05;;;4.20;;
74632;SDS011;63139;52.018;8.552;2022-12-08T13:39:27;5.32;;;3.97;;
74632;SDS011;63139;52.018;8.552;2022-12-08T13:42:01;5.35;;;3.97;;
74632;SDS011;63139;52.018;8.552;2022-12-08T13:44:34;4.60;;;3.80;;
74632;SDS011;63139;52.018;8.552;2022-12-08T13:47:27;5.05;;;3.65;;
74632;SDS011;63139;52.018;8.552;2022-12-08T13:50:02;4.85;;;3.80;;
74632;SDS011;63139;52.018;8.552;2022-12-08T13:52:56;6.28;;;4.10;;
74632;SDS011;63139;52.018;8.552;2022-12-08T13:55:47;5.75;;;3.80;;
74632;SDS011;63139;52.018;8.552;2022-12-08T13:58:39;4.05;;;3.30;;
74632;SDS011;63139;52.018;8.552;2022-12-08T14:01:07;5.57;;;3.97;;
74632;SDS011;63139;52.018;8.552;2022-12-08T14:03:46;5.53;;;4.43;;
74632;SDS011;63139;52.018;8.552;2022-12-08T14:06:36;5.13;;;4.10;;
74632;SDS011;63139;52.018;8.552;2022-12-08T14:09:06;4.90;;;3.90;;
74632;SDS011;63139;52.018;8.552;2022-12-08T14:11:38;4.82;;;3.70;;
74632;SDS011;63139;52.018;8.552;2022-12-08T14:14:12;5.85;;;3.47;;
74632;SDS011;63139;52.018;8.552;2022-12-08T14:17:03;5.25;;;3.72;;
74632;SDS011;63139;52.018;8.552;2022-12-08T14:19:32;5.10;;;3.83;;
74632;SDS011;63139;52.018;8.552;2022-12-08T14:22:02;4.38;;;3.42;;
74632;SDS011;63139;52.018;8.552;2022-12-08T14:24:37;4.53;;;3.20;;
74632;SDS011;63139;52.018;8.552;2022-12-08T14:27:05;5.38;;;3.53;;
74632;SDS011;63139;52.018;8.552;2022-12-08T14:29:40;6.07;;;3.30;;
74632;SDS011;63139;52.018;8.552;2022-12-08T14:32:18;5.93;;;3.63;;
74632;SDS011;63139;52.018;8.552;2022-12-08T14:34:58;4.78;;;3.75;;
74632;SDS011;63139;52.018;8.552;2022-12-08T14:37:29;4.65;;;3.30;;
74632;SDS011;63139;52.018;8.552;2022-12-08T14:39:59;4.93;;;3.47;;
74632;SDS011;63139;52.018;8.552;2022-12-08T14:42:29;4.95;;;3.58;;
74632;SDS011;63139;52.018;8.552;2022-12-08T14:45:10;7.50;;;4.25;;
74632;SDS011;63139;52.018;8.552;2022-12-08T14:47:39;5.85;;;3.88;;
74632;SDS011;63139;52.018;8.552;2022-12-08T14:53:09;6.00;;;4.10;;
74632;SDS011;63139;52.018;8.552;2022-12-08T14:55:39;5.18;;;3.88;;
74632;SDS011;63139;52.018;8.552;2022-12-08T14:58:14;6.43;;;4.13;;
74632;SDS011;63139;52.018;8.552;2022-12-08T15:00:45;7.40;;;4.60;;
74632;SDS011;63139;52.018;8.552;2022-12-08T15:03:16;6.28;;;3.67;;
74632;SDS011;63139;52.018;8.552;2022-12-08T15:05:49;5.47;;;3.70;;
74632;SDS011;63139;52.018;8.552;2022-12-08T15:08:18;5.20;;;3.83;;
74632;SDS011;63139;52.018;8.552;2022-12-08T15:10:46;6.35;;;3.83;;
74632;SDS011;63139;52.018;8.552;2022-12-08T15:13:33;5.07;;;3.75;;
74632;SDS011;63139;52.018;8.552;2022-12-08T15:21:52;6.45;;;3.53;;
74632;SDS011;63139;52.018;8.552;2022-12-08T15:24:22;4.97;;;3.42;;